createdAt,value
2018-01-26T00:01:32.752Z,2.89
2018-01-26T00:04:03.801Z,2.91
2018-01-26T00:06:33.767Z,2.94
2018-01-26T00:09:03.436Z,3.01
2018-01-26T00:11:33.358Z,3.06
2018-01-26T00:14:03.396Z,3.01
2018-01-26T00:16:33.288Z,2.98
2018-01-26T00:19:03.232Z,2.98
2018-01-26T00:21:33.354Z,2.94
2018-01-26T00:24:03.205Z,2.99
2018-01-26T00:26:33.038Z,2.97
2018-01-26T00:29:02.962Z,3.02
2018-01-26T00:31:32.802Z,2.96
2018-01-26T00:34:02.665Z,2.99
2018-01-26T00:36:32.629Z,2.97
2018-01-26T00:39:02.597Z,2.92
2018-01-26T00:41:32.588Z,2.91
2018-01-26T00:44:03.027Z,2.91
2018-01-26T00:46:32.915Z,2.85
2018-01-26T00:49:02.862Z,2.92
2018-01-26T00:51:32.754Z,2.94
2018-01-26T00:54:02.639Z,2.94
2018-01-26T00:56:32.749Z,2.98
2018-01-26T00:59:02.671Z,2.93
2018-01-26T01:01:32.657Z,2.95
2018-01-26T01:04:02.902Z,2.89
2018-01-26T01:06:32.799Z,2.90
2018-01-26T01:09:02.731Z,2.86
2018-01-26T01:11:32.565Z,2.76
2018-01-26T01:14:02.372Z,2.83
2018-01-26T01:16:32.304Z,2.90
2018-01-26T01:19:02.304Z,2.83
2018-01-26T01:21:32.191Z,2.91
2018-01-26T01:24:02.088Z,2.80
2018-01-26T01:26:32.001Z,2.86
2018-01-26T01:29:01.865Z,3.02
2018-01-26T01:31:31.745Z,2.98
2018-01-26T01:34:01.716Z,2.99
2018-01-26T01:36:31.460Z,2.94
2018-01-26T01:39:01.370Z,2.91
2018-01-26T01:41:31.259Z,2.86
2018-01-26T01:44:01.241Z,2.86
2018-01-26T01:46:31.231Z,2.88
2018-01-26T01:49:12.281Z,2.86
2018-01-26T01:51:41.950Z,2.96
2018-01-26T01:54:11.852Z,2.90
2018-01-26T01:56:41.870Z,2.94
2018-01-26T01:59:11.770Z,2.93
2018-01-26T02:01:41.452Z,2.90
2018-01-26T02:04:11.698Z,2.95
2018-01-26T02:06:41.618Z,2.98
2018-01-26T02:09:11.489Z,2.96
2018-01-26T02:11:41.377Z,2.99
2018-01-26T02:14:11.223Z,2.96
2018-01-26T02:16:41.741Z,2.93
2018-01-26T02:19:11.613Z,2.94
2018-01-26T02:21:41.461Z,2.93
2018-01-26T02:24:11.349Z,2.98
2018-01-26T02:26:41.237Z,2.99
2018-01-26T02:29:11.072Z,2.87
2018-01-26T02:31:41.149Z,2.87
2018-01-26T02:34:11.819Z,2.85
2018-01-26T02:36:41.779Z,2.84
2018-01-26T02:39:11.817Z,2.87
2018-01-26T02:41:41.673Z,2.85
2018-01-26T02:44:11.643Z,2.87
2018-01-26T02:46:41.510Z,2.84
2018-01-26T02:49:10.795Z,2.82
2018-01-26T02:51:40.709Z,2.84
2018-01-26T02:54:10.809Z,2.93
2018-01-26T02:56:40.735Z,2.87
2018-01-26T02:59:10.896Z,2.87
2018-01-26T03:01:41.142Z,2.88
2018-01-26T03:04:11.183Z,2.89
2018-01-26T03:06:41.336Z,2.91
2018-01-26T03:09:11.447Z,2.89
2018-01-26T03:11:41.436Z,2.85
2018-01-26T03:14:11.438Z,2.89
2018-01-26T03:16:41.301Z,2.87
2018-01-26T03:19:11.181Z,2.92
2018-01-26T03:21:41.153Z,2.92
2018-01-26T03:24:10.883Z,2.88
2018-01-26T03:26:40.829Z,2.94
2018-01-26T03:29:10.781Z,2.89
2018-01-26T03:31:40.481Z,2.94
2018-01-26T03:34:10.378Z,2.91
2018-01-26T03:36:40.519Z,2.88
2018-01-26T03:39:10.423Z,2.74
2018-01-26T03:41:40.398Z,2.73
2018-01-26T03:44:12.325Z,2.70
2018-01-26T03:46:42.373Z,2.68
2018-01-26T03:49:12.249Z,2.59
2018-01-26T03:51:42.265Z,2.58
2018-01-26T03:54:12.392Z,2.60
2018-01-26T03:56:42.312Z,2.63
2018-01-26T03:59:12.732Z,2.70
2018-01-26T04:01:42.826Z,2.64
2018-01-26T04:07:45.413Z,2.69
2018-01-26T04:10:16.299Z,2.74
2018-01-26T04:12:46.311Z,2.71
2018-01-26T04:15:16.183Z,2.66
2018-01-26T04:17:46.164Z,2.52
2018-01-26T04:20:16.042Z,2.55
2018-01-26T04:22:46.738Z,2.61
2018-01-26T04:25:16.728Z,2.63
2018-01-26T04:27:46.615Z,2.63
2018-01-26T04:30:16.314Z,2.65
2018-01-26T04:32:46.326Z,2.61
2018-01-26T04:35:16.245Z,2.65
2018-01-26T04:37:46.142Z,2.66
2018-01-26T04:40:16.067Z,2.67
2018-01-26T04:42:46.030Z,2.58
2018-01-26T04:45:15.991Z,2.58
2018-01-26T04:47:46.056Z,2.47
2018-01-26T04:50:16.665Z,2.47
2018-01-26T04:52:46.627Z,2.52
2018-01-26T04:55:16.614Z,2.52
2018-01-26T04:57:46.502Z,2.51
2018-01-26T05:00:16.546Z,2.56
2018-01-26T05:02:46.582Z,2.55
2018-01-26T05:05:16.700Z,2.57
2018-01-26T05:07:46.614Z,2.60
2018-01-26T05:10:16.613Z,2.53
2018-01-26T05:12:46.588Z,2.62
2018-01-26T05:15:16.763Z,2.55
2018-01-26T05:17:47.026Z,2.57
2018-01-26T05:22:52.214Z,2.49
2018-01-26T05:25:25.622Z,2.37
2018-01-26T05:27:55.882Z,2.45
2018-01-26T05:30:25.899Z,2.53
2018-01-26T05:33:01.335Z,2.54
2018-01-26T05:35:35.737Z,2.57
2018-01-26T05:38:06.681Z,2.55
2018-01-26T05:40:37.453Z,2.53
2018-01-26T05:43:07.464Z,2.46
2018-01-26T05:45:38.327Z,2.42
2018-01-26T05:48:08.267Z,2.45
2018-01-26T05:50:38.264Z,2.45
2018-01-26T05:53:08.423Z,2.52
2018-01-26T05:55:39.082Z,2.54
2018-01-26T05:58:09.733Z,2.53
2018-01-26T06:00:39.714Z,2.51
2018-01-26T06:03:10.451Z,2.50
2018-01-26T06:05:40.626Z,2.53
2018-01-26T06:08:10.553Z,2.52
2018-01-26T06:10:40.611Z,2.43
2018-01-26T06:13:10.352Z,2.50
2018-01-26T06:15:41.172Z,2.46
2018-01-26T06:18:11.679Z,2.47
2018-01-26T06:20:41.654Z,2.45
2018-01-26T06:23:11.973Z,2.49
2018-01-26T06:25:41.761Z,2.59
2018-01-26T06:28:12.384Z,2.51
2018-01-26T06:30:42.569Z,2.50
2018-01-26T06:33:12.539Z,2.43
2018-01-26T06:35:42.649Z,2.53
2018-01-26T06:38:12.606Z,2.53
2018-01-26T06:40:42.578Z,2.42
2018-01-26T06:43:12.643Z,2.26
2018-01-26T06:45:43.155Z,2.37
2018-01-26T06:48:13.257Z,2.40
2018-01-26T06:50:43.112Z,2.25
2018-01-26T06:53:13.654Z,2.29
2018-01-26T06:55:43.867Z,2.32
2018-01-26T06:58:13.803Z,2.29
2018-01-26T07:00:43.644Z,2.31
2018-01-26T07:03:13.674Z,2.34
2018-01-26T07:05:44.379Z,2.39
2018-01-26T07:08:14.209Z,2.41
2018-01-26T07:10:44.051Z,2.63
2018-01-26T07:13:15.420Z,2.55
2018-01-26T07:15:45.436Z,2.61
2018-01-26T07:18:15.997Z,2.56
2018-01-26T07:20:49.828Z,2.66
2018-01-26T07:23:20.001Z,2.73
2018-01-26T07:25:49.873Z,2.69
2018-01-26T07:28:19.750Z,2.71
2018-01-26T07:30:49.856Z,2.74
2018-01-26T07:33:19.700Z,2.70
2018-01-26T07:35:49.757Z,2.75
2018-01-26T07:38:19.724Z,2.84
2018-01-26T07:40:49.689Z,2.86
2018-01-26T07:43:19.816Z,2.86
2018-01-26T07:45:50.840Z,2.87
2018-01-26T07:48:20.703Z,2.75
2018-01-26T07:50:50.528Z,2.85
2018-01-26T07:53:20.474Z,2.82
2018-01-26T07:55:50.355Z,2.96
2018-01-26T07:58:20.276Z,3.07
2018-01-26T08:00:50.224Z,2.93
2018-01-26T08:03:20.139Z,2.80
2018-01-26T08:05:50.077Z,2.55
2018-01-26T08:08:20.907Z,2.78
2018-01-26T08:10:52.001Z,2.85
2018-01-26T08:13:23.014Z,2.92
2018-01-26T08:15:53.966Z,2.81
2018-01-26T08:18:25.323Z,2.95
2018-01-26T08:20:55.794Z,2.90
2018-01-26T08:23:26.324Z,2.89
2018-01-26T08:25:56.831Z,2.90
2018-01-26T08:28:28.224Z,3.00
2018-01-26T08:30:59.862Z,2.82
2018-01-26T08:33:33.569Z,3.04
2018-01-26T08:36:03.653Z,3.04
2018-01-26T08:38:34.416Z,3.13
2018-01-26T08:41:05.837Z,2.98
2018-01-26T08:43:35.607Z,3.09
2018-01-26T08:46:06.153Z,2.83
2018-01-26T08:48:36.958Z,3.02
2018-01-26T08:51:06.836Z,3.14
2018-01-26T08:53:36.864Z,3.23
2018-01-26T08:56:06.707Z,3.06
2018-01-26T08:58:39.094Z,3.28
2018-01-26T09:01:09.018Z,3.26
2018-01-26T09:03:38.886Z,3.15
2018-01-26T09:06:09.227Z,3.52
2018-01-26T09:08:40.096Z,3.65
2018-01-26T09:11:09.994Z,4.02
2018-01-26T09:13:40.079Z,4.07
2018-01-26T09:16:10.150Z,4.54
2018-01-26T09:18:40.061Z,4.38
2018-01-26T09:21:10.018Z,4.62
2018-01-26T09:23:39.981Z,4.67
2018-01-26T09:26:09.890Z,5.60
2018-01-26T09:28:39.734Z,4.73
2018-01-26T09:31:10.042Z,5.71
2018-01-26T09:33:40.276Z,4.87
2018-01-26T09:36:10.434Z,4.64
2018-01-26T09:38:40.334Z,4.67
2018-01-26T09:41:10.204Z,4.98
2018-01-26T09:43:40.056Z,5.96
2018-01-26T09:46:09.927Z,6.42
2018-01-26T09:48:39.720Z,6.26
2018-01-26T09:51:09.923Z,6.50
2018-01-26T09:53:39.858Z,6.99
2018-01-26T09:56:10.387Z,7.58
2018-01-26T09:58:40.278Z,8.58
2018-01-26T10:01:10.423Z,9.08
2018-01-26T10:03:40.313Z,9.01
2018-01-26T10:06:10.290Z,8.86
2018-01-26T10:08:40.137Z,9.10
2018-01-26T10:11:10.007Z,8.77
2018-01-26T10:13:39.951Z,8.60
2018-01-26T10:16:09.618Z,8.72
2018-01-26T10:18:39.235Z,8.43
2018-01-26T10:21:09.321Z,7.96
2018-01-26T10:23:39.186Z,7.94
2018-01-26T10:26:09.194Z,7.22
2018-01-26T10:28:39.177Z,7.54
2018-01-26T10:31:09.361Z,7.82
2018-01-26T10:33:40.084Z,7.46
2018-01-26T10:36:10.031Z,7.70
2018-01-26T10:38:40.025Z,8.05
2018-01-26T10:41:10.010Z,7.43
2018-01-26T10:43:39.953Z,7.29
2018-01-26T10:46:09.992Z,7.49
2018-01-26T10:48:40.389Z,7.40
2018-01-26T10:51:10.423Z,7.69
2018-01-26T10:53:40.921Z,6.95
2018-01-26T10:56:10.842Z,7.62
2018-01-26T10:58:41.374Z,8.32
2018-01-26T11:01:10.978Z,7.65
2018-01-26T11:03:40.930Z,7.89
2018-01-26T11:06:10.939Z,7.64
2018-01-26T11:08:40.824Z,8.58
2018-01-26T11:11:10.717Z,9.30
2018-01-26T11:13:40.644Z,9.51
2018-01-26T11:16:10.512Z,10.40
2018-01-26T11:18:40.012Z,10.27
2018-01-26T11:21:09.921Z,8.64
2018-01-26T11:23:39.635Z,8.49
2018-01-26T11:26:10.281Z,8.23
2018-01-26T11:28:40.154Z,9.27
2018-01-26T11:31:10.120Z,9.82
2018-01-26T11:33:39.969Z,10.02
2018-01-26T11:36:09.834Z,9.25
2018-01-26T11:38:39.820Z,10.38
2018-01-26T11:41:09.691Z,10.59
2018-01-26T11:43:39.435Z,10.59
2018-01-26T11:46:13.362Z,10.17
2018-01-26T11:48:44.106Z,11.10
2018-01-26T11:51:14.241Z,10.18
2018-01-26T11:53:44.245Z,8.83
2018-01-26T11:56:14.078Z,9.18
2018-01-26T11:58:43.935Z,8.74
2018-01-26T12:01:13.827Z,8.15
2018-01-26T12:03:43.822Z,7.28
2018-01-26T12:06:13.716Z,6.85
2018-01-26T12:08:43.681Z,6.84
2018-01-26T12:11:13.635Z,6.17
2018-01-26T12:13:43.858Z,5.65
2018-01-26T12:16:18.110Z,5.64
2018-01-26T12:18:48.053Z,5.42
2018-01-26T12:21:17.957Z,5.35
2018-01-26T12:23:47.994Z,5.29
2018-01-26T12:26:17.917Z,5.17
2018-01-26T12:28:48.896Z,5.15
2018-01-26T12:31:18.623Z,4.47
2018-01-26T12:33:48.549Z,4.98
2018-01-26T12:36:18.574Z,5.11
2018-01-26T12:38:48.665Z,5.21
2018-01-26T12:41:18.615Z,5.31
2018-01-26T12:43:48.672Z,5.83
2018-01-26T12:46:18.615Z,4.93
2018-01-26T12:48:48.489Z,5.28
2018-01-26T12:51:18.386Z,5.40
2018-01-26T12:53:48.532Z,5.13
2018-01-26T12:56:18.533Z,5.14
2018-01-26T12:58:48.620Z,5.33
2018-01-26T13:01:18.514Z,5.28
2018-01-26T13:03:48.437Z,5.28
2018-01-26T13:06:18.197Z,5.40
2018-01-26T13:08:48.093Z,5.33
2018-01-26T13:11:18.219Z,5.18
2018-01-26T13:13:48.201Z,5.44
2018-01-26T13:16:18.128Z,4.88
2018-01-26T13:18:48.298Z,5.12
2018-01-26T13:21:18.713Z,5.62
2018-01-26T13:23:49.713Z,5.39
2018-01-26T13:26:19.620Z,5.34
2018-01-26T13:28:49.458Z,5.10
2018-01-26T13:31:19.313Z,5.38
2018-01-26T13:33:49.256Z,5.57
2018-01-26T13:36:19.282Z,5.55
2018-01-26T13:38:49.943Z,5.05
2018-01-26T13:41:19.825Z,4.65
2018-01-26T13:43:49.776Z,4.81
2018-01-26T13:46:19.801Z,4.91
2018-01-26T13:48:49.655Z,5.13
2018-01-26T13:51:19.539Z,5.30
2018-01-26T13:53:49.392Z,4.64
2018-01-26T13:56:19.216Z,4.51
2018-01-26T13:58:48.873Z,4.45
2018-01-26T14:01:18.739Z,4.62
2018-01-26T14:03:48.581Z,4.35
2018-01-26T14:06:18.393Z,4.39
2018-01-26T14:08:48.255Z,4.40
2018-01-26T14:11:19.218Z,4.33
2018-01-26T14:13:49.973Z,4.69
2018-01-26T14:16:21.222Z,4.41
2018-01-26T14:18:51.414Z,4.40
2018-01-26T14:21:22.090Z,4.00
2018-01-26T14:23:52.452Z,3.87
2018-01-26T14:26:22.459Z,3.97
2018-01-26T14:28:52.723Z,3.98
2018-01-26T14:31:22.496Z,3.96
2018-01-26T14:33:52.495Z,3.83
2018-01-26T14:36:22.649Z,3.93
2018-01-26T14:38:52.769Z,3.95
2018-01-26T14:41:23.732Z,4.02
2018-01-26T14:43:54.089Z,4.10
2018-01-26T14:46:24.184Z,4.12
2018-01-26T14:48:55.012Z,4.23
2018-01-26T14:51:25.650Z,4.24
2018-01-26T14:53:55.814Z,4.19
2018-01-26T14:56:26.989Z,4.14
2018-01-26T14:58:57.366Z,4.24
2018-01-26T15:01:27.807Z,4.27
2018-01-26T15:03:58.043Z,4.17
2018-01-26T15:06:28.104Z,4.20
2018-01-26T15:08:57.997Z,4.28
2018-01-26T15:11:27.874Z,4.36
2018-01-26T15:13:59.288Z,4.40
2018-01-26T15:16:30.908Z,4.32
2018-01-26T15:19:01.204Z,4.25
2018-01-26T15:21:31.439Z,4.20
2018-01-26T15:24:02.722Z,4.11
2018-01-26T15:26:33.114Z,3.88
2018-01-26T15:29:03.539Z,3.94
2018-01-26T15:31:33.739Z,4.10
2018-01-26T15:34:03.698Z,4.01
2018-01-26T15:36:33.673Z,4.01
2018-01-26T15:39:03.223Z,3.91
2018-01-26T15:41:34.068Z,3.95
2018-01-26T15:44:04.169Z,3.99
2018-01-26T15:46:33.808Z,4.03
2018-01-26T15:49:03.844Z,4.01
2018-01-26T15:51:33.817Z,4.02
2018-01-26T15:54:03.687Z,4.04
2018-01-26T15:56:33.583Z,4.03
2018-01-26T15:59:03.554Z,3.94
2018-01-26T16:01:33.507Z,3.65
2018-01-26T16:04:03.325Z,3.60
2018-01-26T16:06:33.128Z,3.51
2018-01-26T16:09:03.501Z,3.61
2018-01-26T16:11:33.231Z,3.56
2018-01-26T16:14:03.490Z,3.46
2018-01-26T16:16:33.624Z,3.52
2018-01-26T16:19:03.275Z,3.47
2018-01-26T16:21:33.200Z,3.37
2018-01-26T16:24:04.027Z,3.30
2018-01-26T16:26:34.095Z,3.27
2018-01-26T16:29:05.010Z,3.22
2018-01-26T16:31:34.985Z,3.19
2018-01-26T16:34:05.007Z,3.15
2018-01-26T16:36:35.154Z,3.10
2018-01-26T16:39:04.947Z,3.18
2018-01-26T16:41:34.955Z,3.12
2018-01-26T16:44:04.633Z,3.10
2018-01-26T16:46:34.455Z,3.10
2018-01-26T16:49:04.315Z,3.16
2018-01-26T16:51:34.134Z,3.21
2018-01-26T16:54:04.186Z,3.20
2018-01-26T16:56:34.207Z,3.16
2018-01-26T16:59:03.864Z,3.17
2018-01-26T17:01:33.687Z,3.29
2018-01-26T17:04:03.709Z,3.39
2018-01-26T17:06:34.403Z,3.41
2018-01-26T17:09:05.134Z,3.40
2018-01-26T17:11:35.329Z,3.36
2018-01-26T17:14:05.608Z,3.35
2018-01-26T17:16:36.008Z,3.36
2018-01-26T17:19:06.425Z,3.28
2018-01-26T17:21:36.634Z,3.33
2018-01-26T17:24:07.143Z,3.24
2018-01-26T17:26:37.744Z,3.07
2018-01-26T17:29:08.190Z,2.89
2018-01-26T17:31:38.181Z,2.85
2018-01-26T17:34:08.089Z,2.84
2018-01-26T17:36:38.065Z,2.89
2018-01-26T17:39:08.432Z,2.91
2018-01-26T17:41:38.262Z,2.86
2018-01-26T17:44:08.114Z,2.92
2018-01-26T17:46:37.949Z,2.85
2018-01-26T17:49:08.038Z,2.83
2018-01-26T17:51:37.596Z,2.83
2018-01-26T17:54:07.471Z,2.72
2018-01-26T17:56:37.310Z,2.81
2018-01-26T17:59:07.113Z,2.81
2018-01-26T18:01:37.368Z,2.76
2018-01-26T18:04:07.031Z,2.78
2018-01-26T18:06:36.833Z,2.76
2018-01-26T18:09:06.361Z,2.68
2018-01-26T18:11:36.187Z,2.64
2018-01-26T18:14:05.903Z,2.65
2018-01-26T18:16:35.647Z,2.61
2018-01-26T18:19:05.456Z,2.63
2018-01-26T18:21:35.397Z,2.70
2018-01-26T18:24:05.218Z,2.70
2018-01-26T18:26:35.075Z,2.66
2018-01-26T18:29:04.873Z,2.64
2018-01-26T18:31:34.693Z,2.56
2018-01-26T18:34:04.651Z,2.59
2018-01-26T18:36:34.325Z,2.62
2018-01-26T18:39:04.148Z,2.57
2018-01-26T18:41:34.133Z,2.68
2018-01-26T18:44:03.614Z,2.49
2018-01-26T18:46:33.709Z,2.48
2018-01-26T18:49:04.925Z,2.48
2018-01-26T18:51:34.797Z,2.49
2018-01-26T18:54:04.736Z,2.44
2018-01-26T18:56:34.558Z,2.40
2018-01-26T18:59:04.386Z,2.64
2018-01-26T19:01:34.192Z,2.47
2018-01-26T19:04:04.104Z,2.38
2018-01-26T19:06:34.194Z,2.34
2018-01-26T19:09:03.290Z,2.44
2018-01-26T19:11:33.102Z,2.37
2018-01-26T19:14:02.963Z,2.35
2018-01-26T19:16:32.536Z,2.18
2018-01-26T19:19:02.377Z,2.25
2018-01-26T19:21:32.261Z,2.24
2018-01-26T19:24:02.155Z,2.22
2018-01-26T19:26:31.934Z,2.19
2018-01-26T19:29:01.640Z,2.15
2018-01-26T19:31:31.278Z,2.18
2018-01-26T19:34:01.096Z,2.36
2018-01-26T19:36:30.990Z,2.32
2018-01-26T19:39:00.817Z,2.31
2018-01-26T19:41:30.410Z,2.33
2018-01-26T19:44:00.476Z,2.36
2018-01-26T19:46:30.297Z,2.32
2018-01-26T19:49:00.139Z,2.32
2018-01-26T19:51:29.961Z,2.30
2018-01-26T19:53:59.989Z,2.41
2018-01-26T19:56:29.521Z,2.43
2018-01-26T19:58:59.339Z,2.36
2018-01-26T20:01:29.157Z,2.37
2018-01-26T20:04:04.849Z,2.36
2018-01-26T20:06:51.128Z,2.15
2018-01-26T20:09:26.651Z,2.04
2018-01-26T20:12:07.911Z,2.19
2018-01-26T20:14:38.145Z,2.22
2018-01-26T20:17:07.627Z,2.27
2018-01-26T20:19:37.758Z,2.17
2018-01-26T20:22:07.564Z,2.04
2018-01-26T20:24:37.464Z,1.97
2018-01-26T20:27:18.845Z,2.21
2018-01-26T20:29:50.140Z,2.25
2018-01-26T20:32:19.439Z,2.28
2018-01-26T20:34:49.327Z,2.15
2018-01-26T20:37:19.133Z,2.17
2018-01-26T20:39:48.952Z,2.12
2018-01-26T20:42:18.589Z,2.13
2018-01-26T20:44:48.361Z,2.15
2018-01-26T20:47:18.166Z,2.16
2018-01-26T20:49:48.029Z,2.13
2018-01-26T20:52:17.824Z,2.11
2018-01-26T20:54:47.648Z,2.06
2018-01-26T20:57:17.476Z,2.01
2018-01-26T20:59:47.287Z,2.01
2018-01-26T21:02:16.908Z,1.96
2018-01-26T21:04:46.719Z,1.87
2018-01-26T21:07:16.607Z,1.87
2018-01-26T21:09:46.422Z,1.94
2018-01-26T21:12:16.249Z,1.96
2018-01-26T21:14:46.057Z,1.80
2018-01-26T21:17:15.881Z,1.81
2018-01-26T21:19:45.706Z,2.11
2018-01-26T21:22:15.922Z,2.14
2018-01-26T21:24:45.840Z,2.05
2018-01-26T21:27:15.986Z,1.95
2018-01-26T21:29:45.840Z,1.87
2018-01-26T21:32:15.765Z,1.82
2018-01-26T21:34:45.907Z,1.74
2018-01-26T21:37:15.902Z,1.85
2018-01-26T21:39:47.557Z,1.88
2018-01-26T21:42:17.642Z,1.97
2018-01-26T21:44:47.320Z,1.96
2018-01-26T21:47:17.153Z,1.84
2018-01-26T21:49:46.997Z,1.77
2018-01-26T21:52:16.894Z,1.80
2018-01-26T21:54:46.848Z,1.79
2018-01-26T21:57:16.720Z,1.79
2018-01-26T21:59:46.689Z,1.79
2018-01-26T22:02:16.351Z,1.79
2018-01-26T22:04:51.652Z,1.73
2018-01-26T22:07:27.250Z,1.75
2018-01-26T22:09:57.143Z,1.72
2018-01-26T22:12:27.252Z,1.77
2018-01-26T22:14:57.167Z,1.76
2018-01-26T22:17:26.964Z,1.79
2018-01-26T22:19:56.848Z,1.76
2018-01-26T22:22:26.715Z,1.74
2018-01-26T22:24:56.083Z,1.77
2018-01-26T22:27:25.965Z,1.92
2018-01-26T22:29:55.826Z,1.98
2018-01-26T22:32:26.030Z,1.96
2018-01-26T22:34:56.137Z,2.01
2018-01-26T22:37:26.085Z,2.07
2018-01-26T22:39:56.026Z,2.04
2018-01-26T22:42:26.078Z,2.02
2018-01-26T22:44:56.018Z,2.06
2018-01-26T22:47:26.144Z,2.03
2018-01-26T22:49:55.466Z,1.92
2018-01-26T22:52:25.347Z,1.80
2018-01-26T22:54:55.976Z,1.75
2018-01-26T22:57:25.896Z,1.90
2018-01-26T22:59:55.790Z,2.00
2018-01-26T23:02:25.869Z,1.98
2018-01-26T23:04:55.605Z,2.02
2018-01-26T23:07:25.477Z,2.00
2018-01-26T23:09:55.116Z,2.00
2018-01-26T23:12:25.006Z,1.99
2018-01-26T23:14:55.485Z,1.98
2018-01-26T23:17:25.406Z,1.97
2018-01-26T23:19:55.302Z,1.87
2018-01-26T23:22:25.236Z,1.88
2018-01-26T23:24:55.127Z,1.91
2018-01-26T23:27:25.052Z,1.89
2018-01-26T23:29:54.633Z,1.95
2018-01-26T23:32:24.593Z,2.05
2018-01-26T23:34:55.115Z,2.15
2018-01-26T23:37:25.090Z,2.11
2018-01-26T23:39:55.658Z,2.12
2018-01-26T23:42:25.670Z,2.13
2018-01-26T23:44:55.830Z,2.14
2018-01-26T23:47:25.795Z,2.26
2018-01-26T23:49:55.956Z,2.36
2018-01-26T23:52:25.824Z,2.28
2018-01-26T23:54:55.808Z,2.23
2018-01-26T23:57:25.755Z,2.19
2018-01-26T23:59:55.648Z,2.09
